Terminal Aerodrome Forecast
Issued by NWS

Home | Current Version | Previous Version | Text Only | Print | Product List | Glossary On
Versions: 1 2 3 4 5 6 7 8 9 10 11 12 13 14 15 16 17 18 19 20 21 22 23 24 25 26 27 28 29 30 31
877
FTUS42 KMHX 251737
TAFISO
TAF
KISO 251737Z 2518/2618 23016G24KT P6SM VCTS BKN045CB
      TEMPO 2521/2522 5SM TSRA OVC030CB
     FM260000 24011KT P6SM SCT050
     FM260600 24008KT P6SM SKC
     FM261500 27011G18KT P6SM SKC
      AMD LTD TO CLD VIS AND WIND=

USA.gov is the U.S. government's official web portal to all federal, state and local government web resources and services.